sensor_id;sensor_type;location;lat;lon;timestamp;temperature;humidity
44833;DHT22;30569;51.252;9.830;2023-04-01T00:01:19;8.70;99.90
44833;DHT22;30569;51.252;9.830;2023-04-01T00:03:45;8.70;99.90
44833;DHT22;30569;51.252;9.830;2023-04-01T00:06:16;8.40;99.90
44833;DHT22;30569;51.252;9.830;2023-04-01T00:08:42;8.50;99.90
44833;DHT22;30569;51.252;9.830;2023-04-01T00:11:08;8.60;99.90
44833;DHT22;30569;51.252;9.830;2023-04-01T00:13:33;8.50;99.90
44833;DHT22;30569;51.252;9.830;2023-04-01T00:18:26;8.50;99.90
44833;DHT22;30569;51.252;9.830;2023-04-01T00:20:52;8.50;99.90
44833;DHT22;30569;51.252;9.830;2023-04-01T00:23:18;8.80;99.90
44833;DHT22;30569;51.252;9.830;2023-04-01T00:25:45;8.70;99.90
44833;DHT22;30569;51.252;9.830;2023-04-01T00:28:14;8.70;99.90
44833;DHT22;30569;51.252;9.830;2023-04-01T00:30:39;8.60;99.90
44833;DHT22;30569;51.252;9.830;2023-04-01T00:33:05;8.70;99.90
44833;DHT22;30569;51.252;9.830;2023-04-01T00:35:31;8.90;99.90
44833;DHT22;30569;51.252;9.830;2023-04-01T00:37:58;8.80;99.90
44833;DHT22;30569;51.252;9.830;2023-04-01T00:40:33;8.80;99.90
44833;DHT22;30569;51.252;9.830;2023-04-01T00:43:00;8.60;99.90
44833;DHT22;30569;51.252;9.830;2023-04-01T00:45:32;8.70;99.90
44833;DHT22;30569;51.252;9.830;2023-04-01T00:48:03;8.60;99.90
44833;DHT22;30569;51.252;9.830;2023-04-01T00:50:30;8.70;99.90
44833;DHT22;30569;51.252;9.830;2023-04-01T00:52:56;8.70;99.90
44833;DHT22;30569;51.252;9.830;2023-04-01T00:55:23;8.60;99.90
44833;DHT22;30569;51.252;9.830;2023-04-01T00:57:49;8.90;99.90
44833;DHT22;30569;51.252;9.830;2023-04-01T01:00:17;8.80;99.90
44833;DHT22;30569;51.252;9.830;2023-04-01T01:02:45;9.00;99.90
44833;DHT22;30569;51.252;9.830;2023-04-01T01:05:14;9.10;99.90
44833;DHT22;30569;51.252;9.830;2023-04-01T01:08:09;8.70;99.90
44833;DHT22;30569;51.252;9.830;2023-04-01T01:10:39;8.80;99.90
44833;DHT22;30569;51.252;9.830;2023-04-01T01:13:23;8.60;99.90
44833;DHT22;30569;51.252;9.830;2023-04-01T01:16:01;8.60;99.90
44833;DHT22;30569;51.252;9.830;2023-04-01T01:24:28;8.70;99.90
44833;DHT22;30569;51.252;9.830;2023-04-01T01:27:09;8.70;99.90
44833;DHT22;30569;51.252;9.830;2023-04-01T01:35:11;8.40;99.90
44833;DHT22;30569;51.252;9.830;2023-04-01T01:40:08;8.30;99.90
44833;DHT22;30569;51.252;9.830;2023-04-01T01:42:37;8.40;99.90
44833;DHT22;30569;51.252;9.830;2023-04-01T01:45:05;8.40;99.90
44833;DHT22;30569;51.252;9.830;2023-04-01T01:47:33;8.40;99.90
44833;DHT22;30569;51.252;9.830;2023-04-01T01:50:00;8.40;99.90
44833;DHT22;30569;51.252;9.830;2023-04-01T01:52:27;8.30;99.90
44833;DHT22;30569;51.252;9.830;2023-04-01T01:54:55;8.40;99.90
44833;DHT22;30569;51.252;9.830;2023-04-01T01:57:28;8.20;99.90
44833;DHT22;30569;51.252;9.830;2023-04-01T01:59:58;8.40;99.90
44833;DHT22;30569;51.252;9.830;2023-04-01T02:02:26;8.30;99.90
44833;DHT22;30569;51.252;9.830;2023-04-01T02:04:52;8.30;99.90
44833;DHT22;30569;51.252;9.830;2023-04-01T02:07:25;8.30;99.90
44833;DHT22;30569;51.252;9.830;2023-04-01T02:09:52;8.50;99.90
44833;DHT22;30569;51.252;9.830;2023-04-01T02:12:19;8.50;99.90
44833;DHT22;30569;51.252;9.830;2023-04-01T02:14:58;8.40;99.90
44833;DHT22;30569;51.252;9.830;2023-04-01T02:17:29;8.40;99.90
44833;DHT22;30569;51.252;9.830;2023-04-01T02:20:06;8.20;99.90
44833;DHT22;30569;51.252;9.830;2023-04-01T02:22:39;8.20;99.90
44833;DHT22;30569;51.252;9.830;2023-04-01T02:25:15;8.20;99.90
44833;DHT22;30569;51.252;9.830;2023-04-01T02:27:43;8.40;99.90
44833;DHT22;30569;51.252;9.830;2023-04-01T02:30:10;8.30;99.90
44833;DHT22;30569;51.252;9.830;2023-04-01T02:32:38;8.30;99.90
44833;DHT22;30569;51.252;9.830;2023-04-01T02:35:06;8.30;99.90
44833;DHT22;30569;51.252;9.830;2023-04-01T02:37:33;8.40;99.90
44833;DHT22;30569;51.252;9.830;2023-04-01T02:40:01;8.40;99.90
44833;DHT22;30569;51.252;9.830;2023-04-01T02:42:27;8.40;99.90
44833;DHT22;30569;51.252;9.830;2023-04-01T02:44:52;8.40;99.90
44833;DHT22;30569;51.252;9.830;2023-04-01T02:47:18;8.40;99.90
44833;DHT22;30569;51.252;9.830;2023-04-01T02:49:43;8.30;99.90
44833;DHT22;30569;51.252;9.830;2023-04-01T02:52:09;8.20;99.90
44833;DHT22;30569;51.252;9.830;2023-04-01T02:54:35;8.30;99.90
44833;DHT22;30569;51.252;9.830;2023-04-01T02:57:00;8.30;99.90
44833;DHT22;30569;51.252;9.830;2023-04-01T02:59:26;8.40;99.90
44833;DHT22;30569;51.252;9.830;2023-04-01T03:01:51;8.40;99.90
44833;DHT22;30569;51.252;9.830;2023-04-01T03:04:17;8.40;99.90
44833;DHT22;30569;51.252;9.830;2023-04-01T03:06:42;8.40;99.90
44833;DHT22;30569;51.252;9.830;2023-04-01T03:09:08;8.30;99.90
44833;DHT22;30569;51.252;9.830;2023-04-01T03:11:33;8.40;99.90
44833;DHT22;30569;51.252;9.830;2023-04-01T03:13:59;8.40;99.90
44833;DHT22;30569;51.252;9.830;2023-04-01T03:16:24;8.30;99.90
44833;DHT22;30569;51.252;9.830;2023-04-01T03:18:50;8.20;99.90
44833;DHT22;30569;51.252;9.830;2023-04-01T03:21:21;8.30;99.90
44833;DHT22;30569;51.252;9.830;2023-04-01T03:23:47;8.40;99.90
44833;DHT22;30569;51.252;9.830;2023-04-01T03:26:13;8.30;99.90
44833;DHT22;30569;51.252;9.830;2023-04-01T03:28:39;8.40;99.90
44833;DHT22;30569;51.252;9.830;2023-04-01T03:31:05;8.50;99.90
44833;DHT22;30569;51.252;9.830;2023-04-01T03:33:31;8.50;99.90
44833;DHT22;30569;51.252;9.830;2023-04-01T03:35:57;8.50;99.90
44833;DHT22;30569;51.252;9.830;2023-04-01T03:38:23;8.30;99.90
44833;DHT22;30569;51.252;9.830;2023-04-01T03:40:48;8.30;99.90
44833;DHT22;30569;51.252;9.830;2023-04-01T03:43:14;8.20;99.90
44833;DHT22;30569;51.252;9.830;2023-04-01T03:45:50;8.30;99.90
44833;DHT22;30569;51.252;9.830;2023-04-01T03:48:16;8.30;99.90
44833;DHT22;30569;51.252;9.830;2023-04-01T03:50:42;8.30;99.90
44833;DHT22;30569;51.252;9.830;2023-04-01T03:53:10;8.10;99.90
44833;DHT22;30569;51.252;9.830;2023-04-01T03:55:36;8.10;99.90
44833;DHT22;30569;51.252;9.830;2023-04-01T03:58:03;8.10;99.90
44833;DHT22;30569;51.252;9.830;2023-04-01T04:00:29;8.00;99.90
44833;DHT22;30569;51.252;9.830;2023-04-01T04:02:56;8.20;99.90
44833;DHT22;30569;51.252;9.830;2023-04-01T04:05:22;8.20;99.90
44833;DHT22;30569;51.252;9.830;2023-04-01T04:07:48;8.20;99.90
44833;DHT22;30569;51.252;9.830;2023-04-01T04:10:14;8.10;99.90
44833;DHT22;30569;51.252;9.830;2023-04-01T04:12:39;8.10;99.90
44833;DHT22;30569;51.252;9.830;2023-04-01T04:15:06;8.10;99.90
44833;DHT22;30569;51.252;9.830;2023-04-01T04:17:32;8.00;99.90
44833;DHT22;30569;51.252;9.830;2023-04-01T04:19:57;8.00;99.90
44833;DHT22;30569;51.252;9.830;2023-04-01T04:22:23;8.10;99.90
44833;DHT22;30569;51.252;9.830;2023-04-01T04:24:49;7.90;99.90
44833;DHT22;30569;51.252;9.830;2023-04-01T04:27:14;8.00;99.90
44833;DHT22;30569;51.252;9.830;2023-04-01T04:29:40;8.00;99.90
44833;DHT22;30569;51.252;9.830;2023-04-01T04:32:05;8.10;99.90
44833;DHT22;30569;51.252;9.830;2023-04-01T04:34:31;8.20;99.90
44833;DHT22;30569;51.252;9.830;2023-04-01T04:36:57;8.10;99.90
44833;DHT22;30569;51.252;9.830;2023-04-01T04:39:23;7.90;99.90
44833;DHT22;30569;51.252;9.830;2023-04-01T04:41:48;8.00;99.90
44833;DHT22;30569;51.252;9.830;2023-04-01T04:46:40;7.90;99.90
44833;DHT22;30569;51.252;9.830;2023-04-01T04:49:06;8.10;99.90
44833;DHT22;30569;51.252;9.830;2023-04-01T04:51:32;8.10;99.90
44833;DHT22;30569;51.252;9.830;2023-04-01T04:54:05;8.10;99.90
44833;DHT22;30569;51.252;9.830;2023-04-01T04:56:30;8.10;99.90
44833;DHT22;30569;51.252;9.830;2023-04-01T04:58:56;8.10;99.90
44833;DHT22;30569;51.252;9.830;2023-04-01T05:01:22;7.80;99.90
44833;DHT22;30569;51.252;9.830;2023-04-01T05:03:48;8.10;99.90
44833;DHT22;30569;51.252;9.830;2023-04-01T05:06:15;7.90;99.90
44833;DHT22;30569;51.252;9.830;2023-04-01T05:08:41;7.90;99.90
44833;DHT22;30569;51.252;9.830;2023-04-01T05:11:14;7.90;99.90
44833;DHT22;30569;51.252;9.830;2023-04-01T05:13:40;8.00;99.90
44833;DHT22;30569;51.252;9.830;2023-04-01T05:16:14;8.10;99.90
44833;DHT22;30569;51.252;9.830;2023-04-01T05:18:40;8.10;99.90
44833;DHT22;30569;51.252;9.830;2023-04-01T05:21:08;7.90;99.90
44833;DHT22;30569;51.252;9.830;2023-04-01T05:23:34;8.00;99.90
44833;DHT22;30569;51.252;9.830;2023-04-01T05:26:07;8.10;99.90
44833;DHT22;30569;51.252;9.830;2023-04-01T05:28:33;8.00;99.90
44833;DHT22;30569;51.252;9.830;2023-04-01T05:30:59;7.90;99.90
44833;DHT22;30569;51.252;9.830;2023-04-01T05:33:26;7.90;99.90
44833;DHT22;30569;51.252;9.830;2023-04-01T05:35:52;8.00;99.90
44833;DHT22;30569;51.252;9.830;2023-04-01T05:38:18;7.90;99.90
44833;DHT22;30569;51.252;9.830;2023-04-01T05:40:43;7.90;99.90
44833;DHT22;30569;51.252;9.830;2023-04-01T05:43:09;8.00;99.90
44833;DHT22;30569;51.252;9.830;2023-04-01T05:45:35;7.80;99.90
44833;DHT22;30569;51.252;9.830;2023-04-01T05:48:01;8.00;99.90
44833;DHT22;30569;51.252;9.830;2023-04-01T05:50:26;7.90;99.90
44833;DHT22;30569;51.252;9.830;2023-04-01T05:52:52;8.00;99.90
44833;DHT22;30569;51.252;9.830;2023-04-01T05:55:18;7.80;99.90
44833;DHT22;30569;51.252;9.830;2023-04-01T05:57:45;7.90;99.90
44833;DHT22;30569;51.252;9.830;2023-04-01T06:00:12;7.90;99.90
44833;DHT22;30569;51.252;9.830;2023-04-01T06:02:38;8.00;99.90
44833;DHT22;30569;51.252;9.830;2023-04-01T06:05:20;7.90;99.90
44833;DHT22;30569;51.252;9.830;2023-04-01T06:07:47;8.00;99.90
44833;DHT22;30569;51.252;9.830;2023-04-01T06:10:18;8.00;99.90
44833;DHT22;30569;51.252;9.830;2023-04-01T06:20:23;8.00;99.90
44833;DHT22;30569;51.252;9.830;2023-04-01T06:23:18;7.90;99.90
44833;DHT22;30569;51.252;9.830;2023-04-01T06:25:57;8.10;99.90
44833;DHT22;30569;51.252;9.830;2023-04-01T06:28:40;7.90;99.90
44833;DHT22;30569;51.252;9.830;2023-04-01T06:42:34;8.10;99.90
44833;DHT22;30569;51.252;9.830;2023-04-01T06:51:24;8.00;99.90
44833;DHT22;30569;51.252;9.830;2023-04-01T06:56:26;7.70;99.90
44833;DHT22;30569;51.252;9.830;2023-04-01T06:59:05;7.90;99.90
44833;DHT22;30569;51.252;9.830;2023-04-01T07:01:52;7.80;99.90
44833;DHT22;30569;51.252;9.830;2023-04-01T07:04:28;7.60;99.90
44833;DHT22;30569;51.252;9.830;2023-04-01T07:07:12;8.00;99.90
44833;DHT22;30569;51.252;9.830;2023-04-01T07:09:45;8.00;99.90
44833;DHT22;30569;51.252;9.830;2023-04-01T07:15:04;7.90;99.90
44833;DHT22;30569;51.252;9.830;2023-04-01T07:17:33;8.20;99.90
44833;DHT22;30569;51.252;9.830;2023-04-01T07:20:10;8.00;99.90
44833;DHT22;30569;51.252;9.830;2023-04-01T07:22:40;8.10;99.90
44833;DHT22;30569;51.252;9.830;2023-04-01T07:25:24;8.10;99.90
44833;DHT22;30569;51.252;9.830;2023-04-01T07:27:53;8.00;99.90
44833;DHT22;30569;51.252;9.830;2023-04-01T07:30:23;8.20;99.90
44833;DHT22;30569;51.252;9.830;2023-04-01T07:33:11;8.00;99.90
44833;DHT22;30569;51.252;9.830;2023-04-01T07:35:50;8.20;99.90
44833;DHT22;30569;51.252;9.830;2023-04-01T07:43:56;8.30;99.90
44833;DHT22;30569;51.252;9.830;2023-04-01T07:49:30;8.20;99.90
44833;DHT22;30569;51.252;9.830;2023-04-01T07:57:10;8.10;99.90
44833;DHT22;30569;51.252;9.830;2023-04-01T07:59:47;8.10;99.90
44833;DHT22;30569;51.252;9.830;2023-04-01T08:02:50;8.30;99.90
44833;DHT22;30569;51.252;9.830;2023-04-01T08:05:27;8.30;99.90
44833;DHT22;30569;51.252;9.830;2023-04-01T08:07:57;8.30;99.90
44833;DHT22;30569;51.252;9.830;2023-04-01T08:10:40;8.30;99.90
44833;DHT22;30569;51.252;9.830;2023-04-01T08:16:09;8.40;99.90
44833;DHT22;30569;51.252;9.830;2023-04-01T08:18:48;8.30;99.90
44833;DHT22;30569;51.252;9.830;2023-04-01T08:21:27;8.50;99.90
44833;DHT22;30569;51.252;9.830;2023-04-01T08:23:57;8.50;99.90
44833;DHT22;30569;51.252;9.830;2023-04-01T08:26:39;8.40;99.90
44833;DHT22;30569;51.252;9.830;2023-04-01T08:29:26;8.70;99.90
44833;DHT22;30569;51.252;9.830;2023-04-01T08:32:06;8.70;99.90
44833;DHT22;30569;51.252;9.830;2023-04-01T08:34:37;8.60;99.90
44833;DHT22;30569;51.252;9.830;2023-04-01T08:37:11;8.80;99.90
44833;DHT22;30569;51.252;9.830;2023-04-01T08:39:57;8.90;99.90
44833;DHT22;30569;51.252;9.830;2023-04-01T09:04:43;9.30;99.90
44833;DHT22;30569;51.252;9.830;2023-04-01T09:07:29;9.10;99.90
44833;DHT22;30569;51.252;9.830;2023-04-01T09:10:14;9.20;99.90
44833;DHT22;30569;51.252;9.830;2023-04-01T09:24:19;9.30;99.90
44833;DHT22;30569;51.252;9.830;2023-04-01T09:27:04;9.40;99.90
44833;DHT22;30569;51.252;9.830;2023-04-01T09:35:39;9.70;99.90
44833;DHT22;30569;51.252;9.830;2023-04-01T09:41:09;10.10;99.90
44833;DHT22;30569;51.252;9.830;2023-04-01T09:46:18;10.40;99.90
44833;DHT22;30569;51.252;9.830;2023-04-01T09:49:08;10.40;99.90
44833;DHT22;30569;51.252;9.830;2023-04-01T10:00:27;9.70;99.90
44833;DHT22;30569;51.252;9.830;2023-04-01T10:06:02;9.60;99.90
44833;DHT22;30569;51.252;9.830;2023-04-01T10:11:29;10.00;99.90
44833;DHT22;30569;51.252;9.830;2023-04-01T10:16:41;9.80;99.90
44833;DHT22;30569;51.252;9.830;2023-04-01T10:39:11;10.70;99.90
44833;DHT22;30569;51.252;9.830;2023-04-01T10:42:07;10.50;99.90
44833;DHT22;30569;51.252;9.830;2023-04-01T10:45:20;10.60;99.90
44833;DHT22;30569;51.252;9.830;2023-04-01T10:47:54;10.70;99.90
44833;DHT22;30569;51.252;9.830;2023-04-01T10:54:20;10.90;99.90
44833;DHT22;30569;51.252;9.830;2023-04-01T11:11:29;10.70;99.90
44833;DHT22;30569;51.252;9.830;2023-04-01T11:37:15;10.90;99.90
44833;DHT22;30569;51.252;9.830;2023-04-01T11:39:58;10.90;99.90
44833;DHT22;30569;51.252;9.830;2023-04-01T11:47:55;11.20;99.90
44833;DHT22;30569;51.252;9.830;2023-04-01T11:50:53;11.20;99.90
44833;DHT22;30569;51.252;9.830;2023-04-01T12:05:07;10.90;99.90
44833;DHT22;30569;51.252;9.830;2023-04-01T12:13:42;10.70;99.90
44833;DHT22;30569;51.252;9.830;2023-04-01T12:22:53;10.60;99.90
44833;DHT22;30569;51.252;9.830;2023-04-01T12:28:48;12.20;99.90
44833;DHT22;30569;51.252;9.830;2023-04-01T12:31:20;12.30;99.90
44833;DHT22;30569;51.252;9.830;2023-04-01T12:36:55;11.40;99.90
44833;DHT22;30569;51.252;9.830;2023-04-01T12:50:28;10.90;99.90
44833;DHT22;30569;51.252;9.830;2023-04-01T12:55:45;10.90;99.90
44833;DHT22;30569;51.252;9.830;2023-04-01T13:09:24;11.70;99.90
44833;DHT22;30569;51.252;9.830;2023-04-01T13:14:57;11.40;99.90
44833;DHT22;30569;51.252;9.830;2023-04-01T13:23:01;10.50;99.90
44833;DHT22;30569;51.252;9.830;2023-04-01T13:28:28;10.30;99.90
44833;DHT22;30569;51.252;9.830;2023-04-01T13:31:25;10.70;99.90
44833;DHT22;30569;51.252;9.830;2023-04-01T13:42:14;10.70;99.90
44833;DHT22;30569;51.252;9.830;2023-04-01T13:45:00;10.70;99.90
44833;DHT22;30569;51.252;9.830;2023-04-01T13:59:19;10.30;99.90
44833;DHT22;30569;51.252;9.830;2023-04-01T14:02:02;10.30;99.90
44833;DHT22;30569;51.252;9.830;2023-04-01T14:04:45;10.00;99.90
44833;DHT22;30569;51.252;9.830;2023-04-01T14:23:53;10.30;99.90
44833;DHT22;30569;51.252;9.830;2023-04-01T14:26:54;10.20;99.90
44833;DHT22;30569;51.252;9.830;2023-04-01T14:32:55;10.20;99.90
44833;DHT22;30569;51.252;9.830;2023-04-01T14:35:38;10.20;99.90
44833;DHT22;30569;51.252;9.830;2023-04-01T14:41:24;10.10;99.90
44833;DHT22;30569;51.252;9.830;2023-04-01T14:44:23;10.00;99.90
44833;DHT22;30569;51.252;9.830;2023-04-01T14:47:56;9.90;99.90
44833;DHT22;30569;51.252;9.830;2023-04-01T14:50:18;10.00;99.90
44833;DHT22;30569;51.252;9.830;2023-04-01T14:53:11;9.90;99.90
44833;DHT22;30569;51.252;9.830;2023-04-01T15:11:54;9.90;99.90
44833;DHT22;30569;51.252;9.830;2023-04-01T15:14:35;10.00;99.90
44833;DHT22;30569;51.252;9.830;2023-04-01T15:17:27;10.00;99.90
44833;DHT22;30569;51.252;9.830;2023-04-01T15:23:01;10.30;99.90
44833;DHT22;30569;51.252;9.830;2023-04-01T15:28:30;10.90;99.90
44833;DHT22;30569;51.252;9.830;2023-04-01T15:34:38;11.00;99.90
44833;DHT22;30569;51.252;9.830;2023-04-01T15:37:36;11.00;99.90
44833;DHT22;30569;51.252;9.830;2023-04-01T15:40:24;10.90;99.90
44833;DHT22;30569;51.252;9.830;2023-04-01T15:45:47;10.50;99.90
44833;DHT22;30569;51.252;9.830;2023-04-01T15:48:31;10.20;99.90
44833;DHT22;30569;51.252;9.830;2023-04-01T15:51:16;10.20;99.90
44833;DHT22;30569;51.252;9.830;2023-04-01T15:54:03;10.10;99.90
44833;DHT22;30569;51.252;9.830;2023-04-01T16:00:10;10.30;99.90
44833;DHT22;30569;51.252;9.830;2023-04-01T16:09:02;10.00;99.90
44833;DHT22;30569;51.252;9.830;2023-04-01T16:17:31;10.20;99.90
44833;DHT22;30569;51.252;9.830;2023-04-01T16:20:19;10.20;99.90
44833;DHT22;30569;51.252;9.830;2023-04-01T16:23:11;10.10;99.90
44833;DHT22;30569;51.252;9.830;2023-04-01T16:25:46;10.00;99.90
44833;DHT22;30569;51.252;9.830;2023-04-01T16:28:19;10.10;99.90
44833;DHT22;30569;51.252;9.830;2023-04-01T16:31:00;10.10;99.90
44833;DHT22;30569;51.252;9.830;2023-04-01T16:33:47;10.60;99.90
44833;DHT22;30569;51.252;9.830;2023-04-01T16:36:35;10.50;99.90
44833;DHT22;30569;51.252;9.830;2023-04-01T16:44:48;10.60;99.90
44833;DHT22;30569;51.252;9.830;2023-04-01T16:47:27;11.00;99.90
44833;DHT22;30569;51.252;9.830;2023-04-01T16:55:19;10.60;99.90
44833;DHT22;30569;51.252;9.830;2023-04-01T16:57:56;10.10;99.90
44833;DHT22;30569;51.252;9.830;2023-04-01T17:00:50;10.10;99.90
44833;DHT22;30569;51.252;9.830;2023-04-01T17:03:41;10.00;99.90
44833;DHT22;30569;51.252;9.830;2023-04-01T17:06:37;10.10;99.90
44833;DHT22;30569;51.252;9.830;2023-04-01T17:11:56;10.30;99.90
44833;DHT22;30569;51.252;9.830;2023-04-01T17:17:18;10.50;99.90
44833;DHT22;30569;51.252;9.830;2023-04-01T17:25:39;11.60;99.90
44833;DHT22;30569;51.252;9.830;2023-04-01T17:31:35;12.10;99.90
44833;DHT22;30569;51.252;9.830;2023-04-01T17:40:30;12.00;99.90
44833;DHT22;30569;51.252;9.830;2023-04-01T17:46:20;12.00;99.90
44833;DHT22;30569;51.252;9.830;2023-04-01T17:52:03;11.50;99.90
44833;DHT22;30569;51.252;9.830;2023-04-01T18:08:57;11.30;99.90
44833;DHT22;30569;51.252;9.830;2023-04-01T18:14:28;11.50;99.90
44833;DHT22;30569;51.252;9.830;2023-04-01T18:22:41;11.90;99.90
44833;DHT22;30569;51.252;9.830;2023-04-01T18:39:16;11.80;99.90
44833;DHT22;30569;51.252;9.830;2023-04-01T18:47:27;11.70;99.90
44833;DHT22;30569;51.252;9.830;2023-04-01T18:50:24;11.70;99.90
44833;DHT22;30569;51.252;9.830;2023-04-01T18:53:25;11.70;99.90
44833;DHT22;30569;51.252;9.830;2023-04-01T18:56:06;11.70;99.90
44833;DHT22;30569;51.252;9.830;2023-04-01T18:58:35;11.70;99.90
44833;DHT22;30569;51.252;9.830;2023-04-01T19:03:57;11.70;99.90
44833;DHT22;30569;51.252;9.830;2023-04-01T19:06:33;11.70;99.90
44833;DHT22;30569;51.252;9.830;2023-04-01T19:09:23;11.50;99.90
44833;DHT22;30569;51.252;9.830;2023-04-01T19:15:09;11.50;99.90
44833;DHT22;30569;51.252;9.830;2023-04-01T19:17:49;11.20;99.90
44833;DHT22;30569;51.252;9.830;2023-04-01T19:25:55;11.20;99.90
44833;DHT22;30569;51.252;9.830;2023-04-01T19:37:16;11.30;99.90
44833;DHT22;30569;51.252;9.830;2023-04-01T19:51:25;11.20;99.90
44833;DHT22;30569;51.252;9.830;2023-04-01T19:56:52;11.20;99.90
44833;DHT22;30569;51.252;9.830;2023-04-01T19:59:36;11.20;99.90
44833;DHT22;30569;51.252;9.830;2023-04-01T20:04:44;11.20;99.90
44833;DHT22;30569;51.252;9.830;2023-04-01T20:07:40;11.10;99.90
44833;DHT22;30569;51.252;9.830;2023-04-01T20:10:14;11.10;99.90
44833;DHT22;30569;51.252;9.830;2023-04-01T20:15:36;11.20;99.90
44833;DHT22;30569;51.252;9.830;2023-04-01T20:18:12;11.20;99.90
44833;DHT22;30569;51.252;9.830;2023-04-01T20:20:39;11.20;99.90
44833;DHT22;30569;51.252;9.830;2023-04-01T20:26:11;11.10;99.90
44833;DHT22;30569;51.252;9.830;2023-04-01T20:28:47;11.20;99.90
44833;DHT22;30569;51.252;9.830;2023-04-01T20:41:59;11.30;99.90
44833;DHT22;30569;51.252;9.830;2023-04-01T20:44:52;11.20;99.90
44833;DHT22;30569;51.252;9.830;2023-04-01T20:53:11;11.10;99.90
44833;DHT22;30569;51.252;9.830;2023-04-01T20:55:58;11.00;99.90
44833;DHT22;30569;51.252;9.830;2023-04-01T21:02:15;10.90;99.90
44833;DHT22;30569;51.252;9.830;2023-04-01T21:08:02;11.10;99.90
44833;DHT22;30569;51.252;9.830;2023-04-01T21:13:46;10.90;99.90
44833;DHT22;30569;51.252;9.830;2023-04-01T21:19:12;11.10;99.90
44833;DHT22;30569;51.252;9.830;2023-04-01T21:21:44;11.10;99.90
44833;DHT22;30569;51.252;9.830;2023-04-01T21:29:57;11.00;99.90
44833;DHT22;30569;51.252;9.830;2023-04-01T21:40:57;11.30;99.90
44833;DHT22;30569;51.252;9.830;2023-04-01T21:46:32;11.20;99.90
44833;DHT22;30569;51.252;9.830;2023-04-01T21:49:23;11.20;99.90
44833;DHT22;30569;51.252;9.830;2023-04-01T21:52:10;11.10;99.90
44833;DHT22;30569;51.252;9.830;2023-04-01T22:00:38;11.10;99.90
44833;DHT22;30569;51.252;9.830;2023-04-01T22:06:11;10.20;99.90
44833;DHT22;30569;51.252;9.830;2023-04-01T22:14:24;9.50;99.90
44833;DHT22;30569;51.252;9.830;2023-04-01T22:19:39;8.80;99.90
44833;DHT22;30569;51.252;9.830;2023-04-01T22:24:59;8.70;99.90
44833;DHT22;30569;51.252;9.830;2023-04-01T22:27:38;8.80;99.90
44833;DHT22;30569;51.252;9.830;2023-04-01T22:30:17;8.80;99.90
44833;DHT22;30569;51.252;9.830;2023-04-01T22:32:50;8.80;99.90
44833;DHT22;30569;51.252;9.830;2023-04-01T22:38:18;8.50;99.90
44833;DHT22;30569;51.252;9.830;2023-04-01T22:46:19;8.20;99.90
44833;DHT22;30569;51.252;9.830;2023-04-01T22:48:54;8.10;99.90
44833;DHT22;30569;51.252;9.830;2023-04-01T22:51:41;8.10;99.90
44833;DHT22;30569;51.252;9.830;2023-04-01T22:54:27;7.90;99.90
44833;DHT22;30569;51.252;9.830;2023-04-01T22:57:08;7.90;99.90
44833;DHT22;30569;51.252;9.830;2023-04-01T22:59:48;7.90;99.90
44833;DHT22;30569;51.252;9.830;2023-04-01T23:02:26;8.00;99.90
44833;DHT22;30569;51.252;9.830;2023-04-01T23:04:56;7.90;99.90
44833;DHT22;30569;51.252;9.830;2023-04-01T23:07:37;7.80;99.90
44833;DHT22;30569;51.252;9.830;2023-04-01T23:12:59;7.80;99.90
44833;DHT22;30569;51.252;9.830;2023-04-01T23:15:27;8.00;99.90
44833;DHT22;30569;51.252;9.830;2023-04-01T23:18:24;8.00;99.90
44833;DHT22;30569;51.252;9.830;2023-04-01T23:28:53;7.90;99.90
44833;DHT22;30569;51.252;9.830;2023-04-01T23:31:43;7.80;99.90
44833;DHT22;30569;51.252;9.830;2023-04-01T23:36:49;7.50;99.90
44833;DHT22;30569;51.252;9.830;2023-04-01T23:39:33;7.40;99.90
44833;DHT22;30569;51.252;9.830;2023-04-01T23:44:32;7.30;99.90
44833;DHT22;30569;51.252;9.830;2023-04-01T23:46:59;7.20;99.90
44833;DHT22;30569;51.252;9.830;2023-04-01T23:49:48;6.90;99.90
44833;DHT22;30569;51.252;9.830;2023-04-01T23:52:24;7.00;99.90
44833;DHT22;30569;51.252;9.830;2023-04-01T23:54:57;6.90;99.90
44833;DHT22;30569;51.252;9.830;2023-04-01T23:57:30;7.00;99.90
